sensor_id;sensor_type;location;lat;lon;timestamp;temperature;humidity
18043;DHT22;9146;48.074;11.968;2022-07-18T00:00:07;15.50;99.90
18043;DHT22;9146;48.074;11.968;2022-07-18T00:02:34;15.50;99.90
18043;DHT22;9146;48.074;11.968;2022-07-18T00:05:03;15.40;99.90
18043;DHT22;9146;48.074;11.968;2022-07-18T00:07:30;15.40;99.90
18043;DHT22;9146;48.074;11.968;2022-07-18T00:09:57;15.30;99.90
18043;DHT22;9146;48.074;11.968;2022-07-18T00:12:24;15.30;99.90
18043;DHT22;9146;48.074;11.968;2022-07-18T00:14:51;15.30;99.90
18043;DHT22;9146;48.074;11.968;2022-07-18T00:17:18;15.20;99.90
18043;DHT22;9146;48.074;11.968;2022-07-18T00:19:45;15.10;99.90
18043;DHT22;9146;48.074;11.968;2022-07-18T00:22:14;15.10;99.90
18043;DHT22;9146;48.074;11.968;2022-07-18T00:24:41;15.00;99.90
18043;DHT22;9146;48.074;11.968;2022-07-18T00:27:08;15.00;99.90
18043;DHT22;9146;48.074;11.968;2022-07-18T00:29:35;15.00;99.90
18043;DHT22;9146;48.074;11.968;2022-07-18T00:32:02;14.90;99.90
18043;DHT22;9146;48.074;11.968;2022-07-18T00:34:30;14.90;99.90
18043;DHT22;9146;48.074;11.968;2022-07-18T00:36:56;14.90;99.90
18043;DHT22;9146;48.074;11.968;2022-07-18T00:39:25;14.80;99.90
18043;DHT22;9146;48.074;11.968;2022-07-18T00:41:52;14.80;99.90
18043;DHT22;9146;48.074;11.968;2022-07-18T00:44:21;14.80;99.90
18043;DHT22;9146;48.074;11.968;2022-07-18T00:46:49;14.70;99.90
18043;DHT22;9146;48.074;11.968;2022-07-18T00:49:16;14.70;99.90
18043;DHT22;9146;48.074;11.968;2022-07-18T00:51:43;14.60;99.90
18043;DHT22;9146;48.074;11.968;2022-07-18T00:54:10;14.60;99.90
18043;DHT22;9146;48.074;11.968;2022-07-18T00:56:39;14.60;99.90
18043;DHT22;9146;48.074;11.968;2022-07-18T00:59:07;14.50;99.90
18043;DHT22;9146;48.074;11.968;2022-07-18T01:01:34;14.50;99.90
18043;DHT22;9146;48.074;11.968;2022-07-18T01:04:09;14.40;99.90
18043;DHT22;9146;48.074;11.968;2022-07-18T01:06:37;14.40;99.90
18043;DHT22;9146;48.074;11.968;2022-07-18T01:09:04;14.40;99.90
18043;DHT22;9146;48.074;11.968;2022-07-18T01:11:31;14.30;99.90
18043;DHT22;9146;48.074;11.968;2022-07-18T01:14:00;14.30;99.90
18043;DHT22;9146;48.074;11.968;2022-07-18T01:16:27;14.30;99.90
18043;DHT22;9146;48.074;11.968;2022-07-18T01:18:54;14.30;99.90
18043;DHT22;9146;48.074;11.968;2022-07-18T01:21:23;14.30;99.90
18043;DHT22;9146;48.074;11.968;2022-07-18T01:23:50;14.20;99.90
18043;DHT22;9146;48.074;11.968;2022-07-18T01:26:17;14.20;99.90
18043;DHT22;9146;48.074;11.968;2022-07-18T01:28:45;14.10;99.90
18043;DHT22;9146;48.074;11.968;2022-07-18T01:31:13;14.10;99.90
18043;DHT22;9146;48.074;11.968;2022-07-18T01:33:40;14.00;99.90
18043;DHT22;9146;48.074;11.968;2022-07-18T01:36:08;14.00;99.90
18043;DHT22;9146;48.074;11.968;2022-07-18T01:38:36;14.00;99.90
18043;DHT22;9146;48.074;11.968;2022-07-18T01:41:05;14.00;99.90
18043;DHT22;9146;48.074;11.968;2022-07-18T01:43:32;14.00;99.90
18043;DHT22;9146;48.074;11.968;2022-07-18T01:46:00;13.90;99.90
18043;DHT22;9146;48.074;11.968;2022-07-18T01:48:28;13.90;99.90
18043;DHT22;9146;48.074;11.968;2022-07-18T01:50:55;13.90;99.90
18043;DHT22;9146;48.074;11.968;2022-07-18T01:53:22;13.90;99.90
18043;DHT22;9146;48.074;11.968;2022-07-18T01:55:51;13.80;99.90
18043;DHT22;9146;48.074;11.968;2022-07-18T01:58:18;13.80;99.90
18043;DHT22;9146;48.074;11.968;2022-07-18T02:00:45;13.70;99.90
18043;DHT22;9146;48.074;11.968;2022-07-18T02:03:12;13.70;99.90
18043;DHT22;9146;48.074;11.968;2022-07-18T02:05:39;13.70;99.90
18043;DHT22;9146;48.074;11.968;2022-07-18T02:08:06;13.70;99.90
18043;DHT22;9146;48.074;11.968;2022-07-18T02:10:33;13.60;99.90
18043;DHT22;9146;48.074;11.968;2022-07-18T02:13:02;13.60;99.90
18043;DHT22;9146;48.074;11.968;2022-07-18T02:15:28;13.50;99.90
18043;DHT22;9146;48.074;11.968;2022-07-18T02:17:56;13.50;99.90
18043;DHT22;9146;48.074;11.968;2022-07-18T02:20:23;13.50;99.90
18043;DHT22;9146;48.074;11.968;2022-07-18T02:22:50;13.50;99.90
18043;DHT22;9146;48.074;11.968;2022-07-18T02:25:17;13.50;99.90
18043;DHT22;9146;48.074;11.968;2022-07-18T02:27:44;13.50;99.90
18043;DHT22;9146;48.074;11.968;2022-07-18T02:30:12;13.50;99.90
18043;DHT22;9146;48.074;11.968;2022-07-18T02:32:39;13.50;99.90
18043;DHT22;9146;48.074;11.968;2022-07-18T02:35:07;13.40;99.90
18043;DHT22;9146;48.074;11.968;2022-07-18T02:37:35;13.40;99.90
18043;DHT22;9146;48.074;11.968;2022-07-18T02:40:05;13.40;99.90
18043;DHT22;9146;48.074;11.968;2022-07-18T02:42:32;13.30;99.90
18043;DHT22;9146;48.074;11.968;2022-07-18T02:44:59;13.20;99.90
18043;DHT22;9146;48.074;11.968;2022-07-18T02:47:27;13.20;99.90
18043;DHT22;9146;48.074;11.968;2022-07-18T02:49:54;13.10;99.90
18043;DHT22;9146;48.074;11.968;2022-07-18T02:52:21;13.10;99.90
18043;DHT22;9146;48.074;11.968;2022-07-18T02:54:48;13.10;99.90
18043;DHT22;9146;48.074;11.968;2022-07-18T02:57:15;13.10;99.90
18043;DHT22;9146;48.074;11.968;2022-07-18T02:59:42;13.10;99.90
18043;DHT22;9146;48.074;11.968;2022-07-18T03:02:11;13.10;99.90
18043;DHT22;9146;48.074;11.968;2022-07-18T03:04:39;13.00;99.90
18043;DHT22;9146;48.074;11.968;2022-07-18T03:07:06;13.00;99.90
18043;DHT22;9146;48.074;11.968;2022-07-18T03:09:33;13.00;99.90
18043;DHT22;9146;48.074;11.968;2022-07-18T03:12:00;12.90;99.90
18043;DHT22;9146;48.074;11.968;2022-07-18T03:14:27;12.90;99.90
18043;DHT22;9146;48.074;11.968;2022-07-18T03:16:54;12.80;99.90
18043;DHT22;9146;48.074;11.968;2022-07-18T03:19:21;12.80;99.90
18043;DHT22;9146;48.074;11.968;2022-07-18T03:21:49;12.80;99.90
18043;DHT22;9146;48.074;11.968;2022-07-18T03:24:16;12.80;99.90
18043;DHT22;9146;48.074;11.968;2022-07-18T03:26:43;12.70;99.90
18043;DHT22;9146;48.074;11.968;2022-07-18T03:29:11;12.70;99.90
18043;DHT22;9146;48.074;11.968;2022-07-18T03:31:38;12.70;99.90
18043;DHT22;9146;48.074;11.968;2022-07-18T03:34:05;12.70;99.90
18043;DHT22;9146;48.074;11.968;2022-07-18T03:36:32;12.70;99.90
18043;DHT22;9146;48.074;11.968;2022-07-18T03:39:01;12.60;99.90
18043;DHT22;9146;48.074;11.968;2022-07-18T03:41:28;12.70;99.90
18043;DHT22;9146;48.074;11.968;2022-07-18T03:43:55;12.60;99.90
18043;DHT22;9146;48.074;11.968;2022-07-18T03:46:22;12.60;99.90
18043;DHT22;9146;48.074;11.968;2022-07-18T03:48:49;12.60;99.90
18043;DHT22;9146;48.074;11.968;2022-07-18T03:51:16;12.60;99.90
18043;DHT22;9146;48.074;11.968;2022-07-18T03:53:43;12.60;99.90
18043;DHT22;9146;48.074;11.968;2022-07-18T03:56:11;12.60;99.90
18043;DHT22;9146;48.074;11.968;2022-07-18T03:58:38;12.70;99.90
18043;DHT22;9146;48.074;11.968;2022-07-18T04:01:05;12.80;99.90
18043;DHT22;9146;48.074;11.968;2022-07-18T04:03:32;12.80;99.90
18043;DHT22;9146;48.074;11.968;2022-07-18T04:05:59;12.90;99.90
18043;DHT22;9146;48.074;11.968;2022-07-18T04:08:26;13.10;99.90
18043;DHT22;9146;48.074;11.968;2022-07-18T04:10:53;13.20;99.90
18043;DHT22;9146;48.074;11.968;2022-07-18T04:13:22;13.30;99.90
18043;DHT22;9146;48.074;11.968;2022-07-18T04:15:49;13.50;99.90
18043;DHT22;9146;48.074;11.968;2022-07-18T04:18:15;13.70;99.90
18043;DHT22;9146;48.074;11.968;2022-07-18T04:20:42;13.80;99.90
18043;DHT22;9146;48.074;11.968;2022-07-18T04:23:10;13.80;99.90
18043;DHT22;9146;48.074;11.968;2022-07-18T04:25:39;13.90;99.90
18043;DHT22;9146;48.074;11.968;2022-07-18T04:28:07;14.10;99.90
18043;DHT22;9146;48.074;11.968;2022-07-18T04:30:36;14.20;99.90
18043;DHT22;9146;48.074;11.968;2022-07-18T04:33:05;14.40;99.90
18043;DHT22;9146;48.074;11.968;2022-07-18T04:35:32;14.50;99.90
18043;DHT22;9146;48.074;11.968;2022-07-18T04:38:01;14.70;99.90
18043;DHT22;9146;48.074;11.968;2022-07-18T04:40:29;14.90;99.90
18043;DHT22;9146;48.074;11.968;2022-07-18T04:42:56;15.10;99.90
18043;DHT22;9146;48.074;11.968;2022-07-18T04:45:23;15.30;99.90
18043;DHT22;9146;48.074;11.968;2022-07-18T04:47:52;15.40;99.90
18043;DHT22;9146;48.074;11.968;2022-07-18T04:50:20;15.60;99.90
18043;DHT22;9146;48.074;11.968;2022-07-18T04:52:49;15.70;99.90
18043;DHT22;9146;48.074;11.968;2022-07-18T04:55:17;15.90;99.90
18043;DHT22;9146;48.074;11.968;2022-07-18T04:57:44;16.00;99.90
18043;DHT22;9146;48.074;11.968;2022-07-18T05:00:13;16.20;99.90
18043;DHT22;9146;48.074;11.968;2022-07-18T05:02:41;16.30;99.90
18043;DHT22;9146;48.074;11.968;2022-07-18T05:05:10;16.40;99.90
18043;DHT22;9146;48.074;11.968;2022-07-18T05:07:38;16.50;99.90
18043;DHT22;9146;48.074;11.968;2022-07-18T05:10:06;16.60;99.90
18043;DHT22;9146;48.074;11.968;2022-07-18T05:12:34;16.80;99.90
18043;DHT22;9146;48.074;11.968;2022-07-18T05:15:03;16.90;99.90
18043;DHT22;9146;48.074;11.968;2022-07-18T05:17:31;17.00;99.90
18043;DHT22;9146;48.074;11.968;2022-07-18T05:19:58;17.10;99.90
18043;DHT22;9146;48.074;11.968;2022-07-18T05:22:26;17.30;99.90
18043;DHT22;9146;48.074;11.968;2022-07-18T05:24:53;17.30;99.90
18043;DHT22;9146;48.074;11.968;2022-07-18T05:27:20;17.50;99.90
18043;DHT22;9146;48.074;11.968;2022-07-18T05:29:47;17.70;99.90
18043;DHT22;9146;48.074;11.968;2022-07-18T05:32:14;17.90;99.90
18043;DHT22;9146;48.074;11.968;2022-07-18T05:34:42;18.00;99.90
18043;DHT22;9146;48.074;11.968;2022-07-18T05:37:10;18.20;99.90
18043;DHT22;9146;48.074;11.968;2022-07-18T05:39:38;18.30;99.90
18043;DHT22;9146;48.074;11.968;2022-07-18T05:42:05;18.40;99.90
18043;DHT22;9146;48.074;11.968;2022-07-18T05:44:32;18.60;99.90
18043;DHT22;9146;48.074;11.968;2022-07-18T05:47:00;18.80;99.90
18043;DHT22;9146;48.074;11.968;2022-07-18T05:49:26;19.00;99.90
18043;DHT22;9146;48.074;11.968;2022-07-18T05:51:53;19.20;99.90
18043;DHT22;9146;48.074;11.968;2022-07-18T05:54:21;19.30;99.90
18043;DHT22;9146;48.074;11.968;2022-07-18T05:56:50;19.40;99.90
18043;DHT22;9146;48.074;11.968;2022-07-18T05:59:18;19.50;99.90
18043;DHT22;9146;48.074;11.968;2022-07-18T06:01:45;19.60;99.90
18043;DHT22;9146;48.074;11.968;2022-07-18T06:04:13;19.60;99.90
18043;DHT22;9146;48.074;11.968;2022-07-18T06:06:40;19.60;99.90
18043;DHT22;9146;48.074;11.968;2022-07-18T06:09:07;19.60;99.90
18043;DHT22;9146;48.074;11.968;2022-07-18T06:11:35;19.60;99.90
18043;DHT22;9146;48.074;11.968;2022-07-18T06:14:03;19.70;99.90
18043;DHT22;9146;48.074;11.968;2022-07-18T06:16:31;19.70;99.90
18043;DHT22;9146;48.074;11.968;2022-07-18T06:18:58;19.70;99.90
18043;DHT22;9146;48.074;11.968;2022-07-18T06:21:25;19.70;99.90
18043;DHT22;9146;48.074;11.968;2022-07-18T06:23:52;19.70;99.90
18043;DHT22;9146;48.074;11.968;2022-07-18T06:26:19;19.80;99.90
18043;DHT22;9146;48.074;11.968;2022-07-18T06:28:46;19.80;99.90
18043;DHT22;9146;48.074;11.968;2022-07-18T06:31:14;19.90;99.90
18043;DHT22;9146;48.074;11.968;2022-07-18T06:33:43;20.00;99.90
18043;DHT22;9146;48.074;11.968;2022-07-18T06:36:10;20.00;99.90
18043;DHT22;9146;48.074;11.968;2022-07-18T06:38:39;20.10;99.90
18043;DHT22;9146;48.074;11.968;2022-07-18T06:41:06;20.10;99.90
18043;DHT22;9146;48.074;11.968;2022-07-18T06:43:33;20.10;99.90
18043;DHT22;9146;48.074;11.968;2022-07-18T06:46:00;20.20;99.90
18043;DHT22;9146;48.074;11.968;2022-07-18T06:48:29;20.20;99.90
18043;DHT22;9146;48.074;11.968;2022-07-18T06:50:59;20.20;99.90
18043;DHT22;9146;48.074;11.968;2022-07-18T06:53:27;20.30;99.90
18043;DHT22;9146;48.074;11.968;2022-07-18T06:55:54;20.30;99.90
18043;DHT22;9146;48.074;11.968;2022-07-18T06:58:21;20.40;99.90
18043;DHT22;9146;48.074;11.968;2022-07-18T07:00:48;20.50;99.90
18043;DHT22;9146;48.074;11.968;2022-07-18T07:03:15;20.50;99.90
18043;DHT22;9146;48.074;11.968;2022-07-18T07:05:44;20.60;99.90
18043;DHT22;9146;48.074;11.968;2022-07-18T07:08:10;20.60;99.90
18043;DHT22;9146;48.074;11.968;2022-07-18T07:10:38;20.70;99.90
18043;DHT22;9146;48.074;11.968;2022-07-18T07:13:05;20.80;99.90
18043;DHT22;9146;48.074;11.968;2022-07-18T07:15:32;20.80;99.90
18043;DHT22;9146;48.074;11.968;2022-07-18T07:17:59;20.90;99.90
18043;DHT22;9146;48.074;11.968;2022-07-18T07:20:26;21.00;99.90
18043;DHT22;9146;48.074;11.968;2022-07-18T07:22:56;21.10;99.90
18043;DHT22;9146;48.074;11.968;2022-07-18T07:25:25;21.20;99.90
18043;DHT22;9146;48.074;11.968;2022-07-18T07:27:53;21.30;99.90
18043;DHT22;9146;48.074;11.968;2022-07-18T07:30:20;21.40;99.90
18043;DHT22;9146;48.074;11.968;2022-07-18T07:32:47;21.60;99.90
18043;DHT22;9146;48.074;11.968;2022-07-18T07:35:17;21.70;99.90
18043;DHT22;9146;48.074;11.968;2022-07-18T07:37:46;21.90;99.90
18043;DHT22;9146;48.074;11.968;2022-07-18T07:40:15;21.90;99.90
18043;DHT22;9146;48.074;11.968;2022-07-18T07:42:43;22.00;99.90
18043;DHT22;9146;48.074;11.968;2022-07-18T07:45:11;22.10;99.90
18043;DHT22;9146;48.074;11.968;2022-07-18T07:47:39;22.30;99.90
18043;DHT22;9146;48.074;11.968;2022-07-18T07:50:08;22.40;99.90
18043;DHT22;9146;48.074;11.968;2022-07-18T07:52:35;22.50;99.90
18043;DHT22;9146;48.074;11.968;2022-07-18T07:55:03;22.60;99.90
18043;DHT22;9146;48.074;11.968;2022-07-18T07:57:31;22.60;99.90
18043;DHT22;9146;48.074;11.968;2022-07-18T07:59:58;22.70;99.90
18043;DHT22;9146;48.074;11.968;2022-07-18T08:02:25;22.80;99.90
18043;DHT22;9146;48.074;11.968;2022-07-18T08:04:52;22.90;99.90
18043;DHT22;9146;48.074;11.968;2022-07-18T08:07:19;23.00;99.90
18043;DHT22;9146;48.074;11.968;2022-07-18T08:09:47;23.10;99.90
18043;DHT22;9146;48.074;11.968;2022-07-18T08:12:13;23.20;99.90
18043;DHT22;9146;48.074;11.968;2022-07-18T08:14:42;23.30;99.90
18043;DHT22;9146;48.074;11.968;2022-07-18T08:17:09;23.40;99.90
18043;DHT22;9146;48.074;11.968;2022-07-18T08:19:36;23.50;99.90
18043;DHT22;9146;48.074;11.968;2022-07-18T08:22:03;23.50;99.90
18043;DHT22;9146;48.074;11.968;2022-07-18T08:24:31;23.60;99.90
18043;DHT22;9146;48.074;11.968;2022-07-18T08:26:58;23.70;99.90
18043;DHT22;9146;48.074;11.968;2022-07-18T08:29:25;23.70;99.90
18043;DHT22;9146;48.074;11.968;2022-07-18T08:31:54;23.90;98.70
18043;DHT22;9146;48.074;11.968;2022-07-18T08:34:21;23.90;98.40
18043;DHT22;9146;48.074;11.968;2022-07-18T08:36:47;23.90;97.90
18043;DHT22;9146;48.074;11.968;2022-07-18T08:39:14;24.00;97.90
18043;DHT22;9146;48.074;11.968;2022-07-18T08:41:44;24.00;97.60
18043;DHT22;9146;48.074;11.968;2022-07-18T08:44:12;24.10;95.80
18043;DHT22;9146;48.074;11.968;2022-07-18T08:46:40;24.10;95.90
18043;DHT22;9146;48.074;11.968;2022-07-18T08:49:11;24.20;96.10
18043;DHT22;9146;48.074;11.968;2022-07-18T08:51:40;24.20;96.10
18043;DHT22;9146;48.074;11.968;2022-07-18T08:54:08;24.30;96.30
18043;DHT22;9146;48.074;11.968;2022-07-18T08:56:35;24.40;95.30
18043;DHT22;9146;48.074;11.968;2022-07-18T08:59:03;24.50;94.00
18043;DHT22;9146;48.074;11.968;2022-07-18T09:01:30;24.50;93.30
18043;DHT22;9146;48.074;11.968;2022-07-18T09:03:57;24.60;93.20
18043;DHT22;9146;48.074;11.968;2022-07-18T09:06:45;24.60;92.30
18043;DHT22;9146;48.074;11.968;2022-07-18T09:09:14;24.70;91.70
18043;DHT22;9146;48.074;11.968;2022-07-18T09:11:50;24.80;91.00
18043;DHT22;9146;48.074;11.968;2022-07-18T09:14:35;24.90;87.00
18043;DHT22;9146;48.074;11.968;2022-07-18T09:17:10;25.00;82.70
18043;DHT22;9146;48.074;11.968;2022-07-18T09:19:40;25.00;82.60
18043;DHT22;9146;48.074;11.968;2022-07-18T09:22:17;25.10;82.60
18043;DHT22;9146;48.074;11.968;2022-07-18T09:24:56;25.10;81.80
18043;DHT22;9146;48.074;11.968;2022-07-18T09:27:25;25.20;81.10
18043;DHT22;9146;48.074;11.968;2022-07-18T09:30:16;25.20;80.30
18043;DHT22;9146;48.074;11.968;2022-07-18T09:32:45;25.30;79.90
18043;DHT22;9146;48.074;11.968;2022-07-18T09:35:14;25.40;78.60
18043;DHT22;9146;48.074;11.968;2022-07-18T09:37:55;25.40;75.70
18043;DHT22;9146;48.074;11.968;2022-07-18T09:40:26;25.50;75.70
18043;DHT22;9146;48.074;11.968;2022-07-18T09:42:55;25.60;75.00
18043;DHT22;9146;48.074;11.968;2022-07-18T09:45:27;25.60;75.40
18043;DHT22;9146;48.074;11.968;2022-07-18T09:47:56;25.60;76.30
18043;DHT22;9146;48.074;11.968;2022-07-18T09:50:26;25.70;77.40
18043;DHT22;9146;48.074;11.968;2022-07-18T09:53:00;25.80;76.60
18043;DHT22;9146;48.074;11.968;2022-07-18T09:55:27;25.90;70.80
18043;DHT22;9146;48.074;11.968;2022-07-18T09:57:59;25.90;71.70
18043;DHT22;9146;48.074;11.968;2022-07-18T10:00:28;26.00;68.80
18043;DHT22;9146;48.074;11.968;2022-07-18T10:02:57;26.10;69.10
18043;DHT22;9146;48.074;11.968;2022-07-18T10:05:30;26.20;66.30
18043;DHT22;9146;48.074;11.968;2022-07-18T10:07:59;26.20;64.50
18043;DHT22;9146;48.074;11.968;2022-07-18T10:10:27;26.20;57.20
18043;DHT22;9146;48.074;11.968;2022-07-18T10:12:55;26.30;57.40
18043;DHT22;9146;48.074;11.968;2022-07-18T10:15:23;26.30;53.40
18043;DHT22;9146;48.074;11.968;2022-07-18T10:17:51;26.30;50.40
18043;DHT22;9146;48.074;11.968;2022-07-18T10:20:25;26.30;51.90
18043;DHT22;9146;48.074;11.968;2022-07-18T10:22:54;26.30;52.40
18043;DHT22;9146;48.074;11.968;2022-07-18T10:25:24;26.30;52.50
18043;DHT22;9146;48.074;11.968;2022-07-18T10:27:54;26.40;52.00
18043;DHT22;9146;48.074;11.968;2022-07-18T10:30:45;26.40;50.60
18043;DHT22;9146;48.074;11.968;2022-07-18T10:33:36;26.40;52.40
18043;DHT22;9146;48.074;11.968;2022-07-18T10:36:06;26.40;53.10
18043;DHT22;9146;48.074;11.968;2022-07-18T10:38:34;26.50;53.10
18043;DHT22;9146;48.074;11.968;2022-07-18T10:41:04;26.60;52.80
18043;DHT22;9146;48.074;11.968;2022-07-18T10:43:40;26.60;50.50
18043;DHT22;9146;48.074;11.968;2022-07-18T10:46:08;26.70;50.20
18043;DHT22;9146;48.074;11.968;2022-07-18T10:48:55;26.80;50.40
18043;DHT22;9146;48.074;11.968;2022-07-18T10:51:33;26.80;51.10
18043;DHT22;9146;48.074;11.968;2022-07-18T10:54:05;26.90;51.60
18043;DHT22;9146;48.074;11.968;2022-07-18T10:57:09;26.90;51.90
18043;DHT22;9146;48.074;11.968;2022-07-18T10:59:38;27.00;51.50
18043;DHT22;9146;48.074;11.968;2022-07-18T11:02:06;26.90;50.60
18043;DHT22;9146;48.074;11.968;2022-07-18T11:04:40;26.90;51.10
18043;DHT22;9146;48.074;11.968;2022-07-18T11:07:12;26.90;51.80
18043;DHT22;9146;48.074;11.968;2022-07-18T11:09:41;26.90;52.70
18043;DHT22;9146;48.074;11.968;2022-07-18T11:12:34;26.90;52.90
18043;DHT22;9146;48.074;11.968;2022-07-18T11:15:06;27.00;53.70
18043;DHT22;9146;48.074;11.968;2022-07-18T11:18:03;27.00;54.10
18043;DHT22;9146;48.074;11.968;2022-07-18T11:20:42;27.00;54.40
18043;DHT22;9146;48.074;11.968;2022-07-18T11:23:15;27.10;54.50
18043;DHT22;9146;48.074;11.968;2022-07-18T11:25:42;27.10;55.20
18043;DHT22;9146;48.074;11.968;2022-07-18T11:28:11;27.20;55.00
18043;DHT22;9146;48.074;11.968;2022-07-18T11:30:38;27.30;54.10
18043;DHT22;9146;48.074;11.968;2022-07-18T11:33:06;27.40;54.40
18043;DHT22;9146;48.074;11.968;2022-07-18T11:35:46;27.40;54.70
18043;DHT22;9146;48.074;11.968;2022-07-18T11:38:13;27.50;55.10
18043;DHT22;9146;48.074;11.968;2022-07-18T11:40:47;27.60;55.20
18043;DHT22;9146;48.074;11.968;2022-07-18T11:43:21;27.80;54.20
18043;DHT22;9146;48.074;11.968;2022-07-18T11:45:48;27.90;54.40
18043;DHT22;9146;48.074;11.968;2022-07-18T11:48:25;27.90;54.60
18043;DHT22;9146;48.074;11.968;2022-07-18T11:50:52;27.90;54.80
18043;DHT22;9146;48.074;11.968;2022-07-18T11:53:19;27.90;55.60
18043;DHT22;9146;48.074;11.968;2022-07-18T11:55:46;28.00;55.10
18043;DHT22;9146;48.074;11.968;2022-07-18T11:58:16;27.90;55.00
18043;DHT22;9146;48.074;11.968;2022-07-18T12:00:46;28.00;54.40
18043;DHT22;9146;48.074;11.968;2022-07-18T12:03:14;28.00;54.90
18043;DHT22;9146;48.074;11.968;2022-07-18T12:05:43;28.10;54.90
18043;DHT22;9146;48.074;11.968;2022-07-18T12:08:28;28.20;54.90
18043;DHT22;9146;48.074;11.968;2022-07-18T12:11:25;28.20;54.80
18043;DHT22;9146;48.074;11.968;2022-07-18T12:13:55;28.20;52.70
18043;DHT22;9146;48.074;11.968;2022-07-18T12:16:29;28.30;53.10
18043;DHT22;9146;48.074;11.968;2022-07-18T12:18:59;28.40;54.10
18043;DHT22;9146;48.074;11.968;2022-07-18T12:21:42;28.50;52.80
18043;DHT22;9146;48.074;11.968;2022-07-18T12:24:28;28.50;52.40
18043;DHT22;9146;48.074;11.968;2022-07-18T12:27:13;28.50;52.80
18043;DHT22;9146;48.074;11.968;2022-07-18T12:30:06;28.50;51.90
18043;DHT22;9146;48.074;11.968;2022-07-18T12:32:46;28.50;52.10
18043;DHT22;9146;48.074;11.968;2022-07-18T12:35:15;28.50;52.40
18043;DHT22;9146;48.074;11.968;2022-07-18T12:37:52;28.60;52.90
18043;DHT22;9146;48.074;11.968;2022-07-18T12:40:19;28.60;53.10
18043;DHT22;9146;48.074;11.968;2022-07-18T12:42:46;28.50;53.00
18043;DHT22;9146;48.074;11.968;2022-07-18T12:45:15;28.60;52.50
18043;DHT22;9146;48.074;11.968;2022-07-18T12:47:43;28.70;52.80
18043;DHT22;9146;48.074;11.968;2022-07-18T12:50:10;28.80;51.90
18043;DHT22;9146;48.074;11.968;2022-07-18T12:52:37;28.90;52.30
18043;DHT22;9146;48.074;11.968;2022-07-18T12:55:05;28.90;52.30
18043;DHT22;9146;48.074;11.968;2022-07-18T12:57:32;29.00;53.40
18043;DHT22;9146;48.074;11.968;2022-07-18T12:59:59;29.10;54.20
18043;DHT22;9146;48.074;11.968;2022-07-18T13:02:26;29.20;53.30
18043;DHT22;9146;48.074;11.968;2022-07-18T13:04:54;29.40;52.20
18043;DHT22;9146;48.074;11.968;2022-07-18T13:07:21;29.50;51.70
18043;DHT22;9146;48.074;11.968;2022-07-18T13:09:48;29.50;51.50
18043;DHT22;9146;48.074;11.968;2022-07-18T13:12:16;29.60;51.00
18043;DHT22;9146;48.074;11.968;2022-07-18T13:14:43;29.60;50.50
18043;DHT22;9146;48.074;11.968;2022-07-18T13:17:10;29.60;50.70
18043;DHT22;9146;48.074;11.968;2022-07-18T13:19:37;29.60;50.40
18043;DHT22;9146;48.074;11.968;2022-07-18T13:22:05;29.60;49.90
18043;DHT22;9146;48.074;11.968;2022-07-18T13:24:32;29.70;49.60
18043;DHT22;9146;48.074;11.968;2022-07-18T13:26:59;29.70;49.80
18043;DHT22;9146;48.074;11.968;2022-07-18T13:29:26;29.70;49.60
18043;DHT22;9146;48.074;11.968;2022-07-18T13:31:53;29.70;49.00
18043;DHT22;9146;48.074;11.968;2022-07-18T13:34:21;29.70;48.30
18043;DHT22;9146;48.074;11.968;2022-07-18T13:36:49;29.70;48.10
18043;DHT22;9146;48.074;11.968;2022-07-18T13:39:19;29.70;48.10
18043;DHT22;9146;48.074;11.968;2022-07-18T13:41:46;29.80;47.90
18043;DHT22;9146;48.074;11.968;2022-07-18T13:44:13;29.70;47.30
18043;DHT22;9146;48.074;11.968;2022-07-18T13:46:40;29.60;47.80
18043;DHT22;9146;48.074;11.968;2022-07-18T13:49:09;29.60;47.80
18043;DHT22;9146;48.074;11.968;2022-07-18T13:51:38;29.60;48.00
18043;DHT22;9146;48.074;11.968;2022-07-18T13:54:06;29.60;47.50
18043;DHT22;9146;48.074;11.968;2022-07-18T13:56:34;29.60;46.70
18043;DHT22;9146;48.074;11.968;2022-07-18T13:59:01;29.50;47.40
18043;DHT22;9146;48.074;11.968;2022-07-18T14:01:28;29.50;47.30
18043;DHT22;9146;48.074;11.968;2022-07-18T14:03:55;29.60;46.90
18043;DHT22;9146;48.074;11.968;2022-07-18T14:06:22;29.70;47.70
18043;DHT22;9146;48.074;11.968;2022-07-18T14:08:49;29.90;47.50
18043;DHT22;9146;48.074;11.968;2022-07-18T14:11:18;30.00;46.80
18043;DHT22;9146;48.074;11.968;2022-07-18T14:13:46;30.10;47.00
18043;DHT22;9146;48.074;11.968;2022-07-18T14:16:13;30.10;46.10
18043;DHT22;9146;48.074;11.968;2022-07-18T14:18:40;30.10;46.10
18043;DHT22;9146;48.074;11.968;2022-07-18T14:21:07;30.10;45.70
18043;DHT22;9146;48.074;11.968;2022-07-18T14:23:34;29.80;45.00
18043;DHT22;9146;48.074;11.968;2022-07-18T14:26:01;29.90;46.00
18043;DHT22;9146;48.074;11.968;2022-07-18T14:28:28;30.00;46.20
18043;DHT22;9146;48.074;11.968;2022-07-18T14:30:56;30.00;46.00
18043;DHT22;9146;48.074;11.968;2022-07-18T14:33:23;30.10;45.80
18043;DHT22;9146;48.074;11.968;2022-07-18T14:35:50;30.10;45.30
18043;DHT22;9146;48.074;11.968;2022-07-18T14:38:17;30.20;45.60
18043;DHT22;9146;48.074;11.968;2022-07-18T14:40:44;30.20;45.60
18043;DHT22;9146;48.074;11.968;2022-07-18T14:43:11;30.20;45.40
18043;DHT22;9146;48.074;11.968;2022-07-18T14:45:38;30.30;44.50
18043;DHT22;9146;48.074;11.968;2022-07-18T14:48:07;30.30;44.70
18043;DHT22;9146;48.074;11.968;2022-07-18T14:50:34;30.30;44.40
18043;DHT22;9146;48.074;11.968;2022-07-18T14:53:01;30.40;44.50
18043;DHT22;9146;48.074;11.968;2022-07-18T14:55:28;30.40;44.70
18043;DHT22;9146;48.074;11.968;2022-07-18T14:57:55;30.50;45.40
18043;DHT22;9146;48.074;11.968;2022-07-18T15:00:22;30.60;45.10
18043;DHT22;9146;48.074;11.968;2022-07-18T15:02:49;30.70;45.40
18043;DHT22;9146;48.074;11.968;2022-07-18T15:05:17;30.80;44.30
18043;DHT22;9146;48.074;11.968;2022-07-18T15:07:44;30.80;44.40
18043;DHT22;9146;48.074;11.968;2022-07-18T15:10:11;30.90;44.60
18043;DHT22;9146;48.074;11.968;2022-07-18T15:12:39;30.90;45.00
18043;DHT22;9146;48.074;11.968;2022-07-18T15:15:07;30.90;44.50
18043;DHT22;9146;48.074;11.968;2022-07-18T15:17:34;31.00;44.50
18043;DHT22;9146;48.074;11.968;2022-07-18T15:20:02;30.90;44.10
18043;DHT22;9146;48.074;11.968;2022-07-18T15:22:30;30.90;43.90
18043;DHT22;9146;48.074;11.968;2022-07-18T15:24:57;31.00;44.30
18043;DHT22;9146;48.074;11.968;2022-07-18T15:27:24;30.90;43.70
18043;DHT22;9146;48.074;11.968;2022-07-18T15:29:51;30.90;44.00
18043;DHT22;9146;48.074;11.968;2022-07-18T15:32:18;31.00;44.00
18043;DHT22;9146;48.074;11.968;2022-07-18T15:34:45;31.00;43.80
18043;DHT22;9146;48.074;11.968;2022-07-18T15:37:12;31.00;43.50
18043;DHT22;9146;48.074;11.968;2022-07-18T15:39:40;31.00;43.60